Time;durP1;ratioP1;P1;durP2;ratioP2;P2;SDS_P1;SDS_P2;PMS_P1;PMS_P2;Temp;Humidity;BMP_temperature;BMP_pressure;BME280_temperature;BME280_humidity;BME280_pressure;Samples;Min_cycle;Max_cycle;Signal;HPM_P1;HPM_P2
2022/05/24 00:01:03;;;;;;;5.32;2.25;;;;;;;16.28;64.07;99679.53;5109421;28;20525;-33
2022/05/24 00:03:28;;;;;;;5.93;2.10;;;;;;;16.23;63.86;99674.16;5091080;28;20028;-28
2022/05/24 00:05:54;;;;;;;6.63;2.42;;;;;;;16.20;64.34;99671.97;5109503;28;20031;-28
2022/05/24 00:08:20;;;;;;;6.38;1.90;;;;;;;16.23;63.91;99676.84;5090841;28;20036;-28
2022/05/24 00:10:46;;;;;;;4.55;2.22;;;;;;;16.22;63.38;99653.69;5089685;28;20023;-28
2022/05/24 00:13:12;;;;;;;3.25;2.10;;;;;;;15.95;64.48;99676.22;5090788;28;20035;-31
2022/05/24 00:15:38;;;;;;;4.68;2.10;;;;;;;16.25;63.83;99688.16;5090503;28;20411;-31
2022/05/24 00:18:31;;;;;;;7.55;2.38;;;;;;;16.09;64.93;99699.94;5109155;28;20032;-29
2022/05/24 00:21:00;;;;;;;4.38;2.55;;;;;;;16.04;65.69;99706.91;5091449;28;20044;-28
2022/05/24 00:23:28;;;;;;;4.75;2.30;;;;;;;15.81;66.37;99692.06;5090645;28;20449;-28
2022/05/24 00:25:56;;;;;;;6.57;3.00;;;;;;;15.80;67.47;99716.50;5109399;28;20047;-28
2022/05/24 00:28:25;;;;;;;5.32;2.78;;;;;;;15.77;67.90;99717.00;5090254;28;20035;-28
2022/05/24 00:30:51;;;;;;;7.82;2.80;;;;;;;15.33;70.86;99711.91;5108946;28;20484;-29
2022/05/24 00:33:17;;;;;;;4.80;2.85;;;;;;;15.12;71.96;99711.78;5090566;28;20410;-30
2022/05/24 00:35:44;;;;;;;5.00;2.90;;;;;;;14.81;73.53;99705.31;5090267;28;20028;-30
2022/05/24 00:38:14;;;;;;;4.68;2.85;;;;;;;14.90;73.77;99692.25;5108889;28;20035;-29
2022/05/24 00:40:45;;;;;;;5.05;3.20;;;;;;;15.05;72.98;99695.06;5108473;28;20114;-28
2022/05/24 00:43:33;;;;;;;7.93;3.40;;;;;;;14.78;74.14;99689.75;5108726;28;20028;-31
2022/05/24 00:46:08;;;;;;;8.65;4.32;;;;;;;14.59;74.83;99687.44;5108272;28;20043;-29
2022/05/24 00:48:37;;;;;;;8.55;4.40;;;;;;;14.93;73.53;99702.47;5089704;28;20031;-28
2022/05/24 00:51:06;;;;;;;8.07;4.25;;;;;;;15.13;72.20;99699.94;5089917;28;20032;-29
2022/05/24 00:53:53;;;;;;;6.20;4.22;;;;;;;15.18;72.97;99720.66;5090160;28;20728;-28
2022/05/24 00:56:41;;;;;;;9.48;4.10;;;;;;;15.09;73.40;99717.63;5108426;28;20545;-29
2022/05/24 00:59:13;;;;;;;10.48;5.47;;;;;;;14.94;74.28;99709.47;5094522;28;20468;-30
2022/05/24 01:01:47;;;;;;;10.00;6.30;;;;;;;14.74;74.41;99678.69;5089757;28;20529;-28
2022/05/24 01:04:14;;;;;;;11.55;6.90;;;;;;;14.36;76.53;99699.25;5108340;28;20031;-28
2022/05/24 01:06:40;;;;;;;10.32;6.60;;;;;;;14.35;77.12;99703.00;5089613;28;20032;-28
2022/05/24 01:09:10;;;;;;;9.52;5.28;;;;;;;14.51;76.32;99700.47;5108236;28;20069;-28
2022/05/24 01:11:42;;;;;;;9.93;5.43;;;;;;;14.53;76.18;99698.34;5089849;28;20084;-28
2022/05/24 01:14:11;;;;;;;7.15;4.18;;;;;;;14.73;75.49;99706.63;5089511;28;20024;-29
2022/05/24 01:16:36;;;;;;;;;;;;;;;14.85;74.30;99712.63;5089982;28;20035;-29
2022/05/24 01:19:05;;;;;;;5.80;3.38;;;;;;;14.90;73.88;99713.75;5108119;28;19912;-29
2022/05/24 01:21:31;;;;;;;7.13;3.70;;;;;;;15.23;72.18;99718.00;5107903;28;20035;-31
2022/05/24 01:24:08;;;;;;;6.53;3.88;;;;;;;15.06;72.80;99705.53;5107760;28;20030;-29
2022/05/24 01:26:55;;;;;;;6.88;3.85;;;;;;;15.06;73.05;99707.44;5088902;28;20480;-30
2022/05/24 01:29:26;;;;;;;6.70;3.90;;;;;;;15.22;72.50;99711.84;5089475;28;20072;-28
2022/05/24 01:37:22;;;;;;;7.43;3.78;;;;;;;14.83;74.82;99708.56;5107911;28;20097;-29
2022/05/24 01:39:52;;;;;;;6.22;4.10;;;;;;;14.96;73.92;99691.25;5107367;28;20050;-34
2022/05/24 01:42:19;;;;;;;7.75;3.97;;;;;;;15.04;73.83;99688.06;5089360;28;20030;-29
2022/05/24 01:45:13;;;;;;;7.85;4.47;;;;;;;15.27;73.05;99717.22;5088686;28;20084;-28
2022/05/24 01:47:42;;;;;;;6.03;4.13;;;;;;;15.13;72.92;99696.47;5089214;28;20023;-27
2022/05/24 01:50:13;;;;;;;7.45;4.38;;;;;;;15.15;73.34;99703.19;5107462;28;20110;-27
2022/05/24 01:52:48;;;;;;;6.53;4.15;;;;;;;15.22;73.10;99716.38;5088853;28;20039;-29
2022/05/24 01:55:20;;;;;;;6.82;3.97;;;;;;;15.18;73.70;99720.66;5089089;28;20077;-29
2022/05/24 01:57:50;;;;;;;9.05;4.30;;;;;;;15.23;73.08;99710.75;5107153;28;20038;-31
2022/05/24 02:00:17;;;;;;;8.50;4.25;;;;;;;15.30;72.78;99712.41;5089320;28;20122;-28
2022/05/24 02:02:43;;;;;;;7.63;3.85;;;;;;;15.33;72.40;99738.78;5088835;28;20023;-30
2022/05/24 02:05:10;;;;;;;8.02;4.15;;;;;;;15.10;73.42;99723.81;5089028;28;20399;-29
2022/05/24 02:07:36;;;;;;;6.97;4.17;;;;;;;15.21;73.20;99726.31;5107362;28;20047;-30
2022/05/24 02:10:03;;;;;;;9.50;4.38;;;;;;;15.10;73.28;99729.19;5107055;28;20406;-30
2022/05/24 02:12:44;;;;;;;6.07;3.85;;;;;;;15.16;73.76;99731.69;5106819;28;20085;-29
2022/05/24 02:15:13;;;;;;;6.28;4.22;;;;;;;15.15;73.42;99731.94;5107375;28;20035;-30
2022/05/24 02:17:49;;;;;;;7.88;3.92;;;;;;;14.96;74.69;99728.81;5107508;28;20038;-28
2022/05/24 02:20:20;;;;;;;6.15;3.92;;;;;;;14.67;75.12;99699.59;5107112;28;20118;-33
2022/05/24 02:22:47;;;;;;;5.70;3.85;;;;;;;14.97;73.75;99720.50;5088425;28;20118;-30
2022/05/24 02:25:28;;;;;;;11.48;4.10;;;;;;;15.02;74.34;99750.09;5088819;28;20027;-29
2022/05/24 02:27:54;;;;;;;7.07;4.07;;;;;;;14.82;74.88;99728.44;5107010;28;20032;-31
2022/05/24 02:30:24;;;;;;;7.05;3.90;;;;;;;15.36;73.38;99759.75;5107100;28;20047;-28
2022/05/24 02:32:50;;;;;;;6.32;4.55;;;;;;;14.92;74.87;99738.47;5088374;28;20031;-32
2022/05/24 02:35:15;;;;;;;7.97;4.35;;;;;;;14.64;76.75;99748.41;5109626;28;20024;-30
2022/05/24 02:37:41;;;;;;;6.72;4.00;;;;;;;14.72;75.85;99723.78;5111036;28;20035;-28
2022/05/24 02:42:53;;;;;;;8.82;4.30;;;;;;;14.68;76.57;99746.81;5111386;28;20042;-29
2022/05/24 02:45:19;;;;;;;7.15;3.97;;;;;;;14.96;75.04;99751.13;5110716;28;20062;-30
2022/05/24 02:47:44;;;;;;;8.13;4.65;;;;;;;14.94;74.75;99742.50;5092380;28;20020;-30
2022/05/24 02:50:11;;;;;;;6.35;4.18;;;;;;;14.84;75.23;99734.34;5111062;28;20039;-29
2022/05/24 02:52:38;;;;;;;6.50;4.20;;;;;;;14.99;74.13;99739.03;5110743;28;20054;-28
2022/05/24 02:55:04;;;;;;;7.38;4.30;;;;;;;15.01;75.14;99742.28;5092557;28;20507;-28
2022/05/24 02:57:30;;;;;;;8.20;4.30;;;;;;;14.77;75.61;99726.53;5110857;28;20023;-30
2022/05/24 02:59:55;;;;;;;10.55;4.63;;;;;;;14.96;75.55;99753.00;5111035;28;20035;-29
2022/05/24 03:02:21;;;;;;;8.93;4.50;;;;;;;15.18;74.19;99756.41;5110765;28;20035;-28
2022/05/24 03:04:46;;;;;;;8.85;4.45;;;;;;;15.09;73.86;99744.50;5110776;28;20024;-29
2022/05/24 03:09:55;;;;;;;9.88;4.40;;;;;;;14.63;76.83;99752.16;5110731;28;20823;-28
2022/05/24 03:15:05;;;;;;;6.97;4.40;;;;;;;14.72;76.45;99739.88;5110303;28;20505;-28
2022/05/24 03:17:31;;;;;;;8.50;4.65;;;;;;;15.25;73.92;99759.66;5075247;28;20031;-29
2022/05/24 03:19:57;;;;;;;7.10;4.60;;;;;;;15.58;71.61;99752.38;5110602;28;20415;-28
2022/05/24 03:22:23;;;;;;;12.25;7.93;;;;;;;15.41;72.67;99751.72;5110506;28;20028;-29
2022/05/24 03:24:48;;;;;;;14.15;8.98;;;;;;;15.47;71.84;99767.63;5091810;28;20124;-29
2022/05/24 03:27:14;;;;;;;10.55;6.00;;;;;;;14.86;74.81;99756.41;5110041;28;20419;-28
2022/05/24 03:29:41;;;;;;;12.70;5.72;;;;;;;14.95;74.75;99748.69;5110346;28;20029;-28
2022/05/24 03:32:08;;;;;;;10.55;5.00;;;;;;;15.57;72.63;99777.63;5091849;28;20045;-29
2022/05/24 03:34:35;;;;;;;11.65;5.50;;;;;;;15.66;72.54;99781.44;5091625;28;20034;-29
2022/05/24 03:37:00;;;;;;;9.98;5.18;;;;;;;15.58;71.78;99784.63;5091580;28;20093;-29
2022/05/24 03:39:26;;;;;;;10.13;5.03;;;;;;;15.84;70.90;99776.75;5109157;28;20051;-30
2022/05/24 03:41:51;;;;;;;12.32;5.53;;;;;;;15.67;71.05;99779.56;5110120;28;20031;-29
2022/05/24 03:44:17;;;;;;;9.48;4.68;;;;;;;15.61;71.63;99797.56;5091264;28;20031;-31
2022/05/24 03:46:42;;;;;;;7.65;4.80;;;;;;;15.63;71.17;99776.59;5091223;28;20038;-30
2022/05/24 03:49:09;;;;;;;12.02;4.78;;;;;;;15.56;71.37;99797.50;5109941;28;20054;-29
2022/05/24 03:51:34;;;;;;;8.38;4.30;;;;;;;15.04;73.60;99761.38;5091461;28;20031;-28
2022/05/24 03:54:00;;;;;;;11.23;4.93;;;;;;;15.51;72.37;99788.59;5109699;28;20032;-32
2022/05/24 03:56:25;;;;;;;13.75;5.97;;;;;;;15.82;70.79;99790.44;5091193;28;20024;-30
2022/05/24 03:58:51;;;;;;;12.93;6.07;;;;;;;15.61;71.36;99773.38;5090886;28;20027;-30
2022/05/24 04:01:16;;;;;;;9.98;5.07;;;;;;;15.73;70.98;99785.81;5109889;28;20365;-30
2022/05/24 04:03:42;;;;;;;12.43;5.10;;;;;;;15.84;70.09;99776.75;5091305;28;20063;-29
2022/05/24 04:06:07;;;;;;;9.77;5.30;;;;;;;16.02;70.16;99795.13;5109561;28;20442;-30
2022/05/24 04:08:33;;;;;;;11.00;5.72;;;;;;;16.02;70.17;99797.03;5109518;28;20096;-30
2022/05/24 04:11:04;;;;;;;9.63;4.75;;;;;;;16.07;69.85;99788.97;5109604;28;20050;-30
2022/05/24 04:13:31;;;;;;;13.02;5.47;;;;;;;16.09;69.90;99784.13;5109594;28;20028;-29
2022/05/24 04:15:57;;;;;;;12.88;5.90;;;;;;;15.56;72.32;99783.25;5091177;28;20468;-28
2022/05/24 04:18:22;;;;;;;14.18;7.55;;;;;;;15.81;72.00;99791.53;5109546;28;20046;-28
2022/05/24 04:20:48;;;;;;;11.15;6.95;;;;;;;15.96;70.66;99796.19;5109104;28;20034;-31
2022/05/24 04:23:14;;;;;;;12.13;8.60;;;;;;;16.31;69.37;99810.88;5109165;28;20028;-28
2022/05/24 04:25:40;;;;;;;14.50;8.38;;;;;;;16.17;69.82;99812.41;5090510;28;20055;-32
2022/05/24 04:28:06;;;;;;;12.15;6.88;;;;;;;16.29;69.12;99791.47;5090737;28;20124;-32
2022/05/24 04:30:32;;;;;;;11.55;6.28;;;;;;;16.25;69.25;99803.84;5108913;28;20059;-29
2022/05/24 04:32:58;;;;;;;11.90;7.22;;;;;;;16.10;69.84;99790.31;5109371;28;20031;-30
2022/05/24 04:35:24;;;;;;;19.52;8.95;;;;;;;16.27;69.96;99817.84;5109208;28;20124;-31
2022/05/24 04:37:50;;;;;;;19.70;12.93;;;;;;;16.28;69.89;99811.38;5090499;28;20039;-32
2022/05/24 04:40:16;;;;;;;15.02;11.65;;;;;;;16.26;70.13;99810.84;5108665;28;20083;-31
2022/05/24 04:42:42;;;;;;;10.75;7.80;;;;;;;16.41;69.26;99818.19;5109139;28;20108;-32
2022/05/24 04:45:11;;;;;;;11.75;6.10;;;;;;;16.25;69.70;99815.41;5108812;28;20411;-28
2022/05/24 04:47:36;;;;;;;11.07;6.82;;;;;;;16.09;70.33;99800.28;5108670;28;20027;-34
2022/05/24 04:50:09;;;;;;;11.35;7.25;;;;;;;16.01;71.34;99820.41;5108960;28;20031;-28
2022/05/24 04:52:37;;;;;;;11.73;7.07;;;;;;;16.28;70.15;99814.06;5090114;28;20020;-29
2022/05/24 04:55:04;;;;;;;;;;;;;;;16.20;70.34;99812.72;5090307;28;20039;-28
2022/05/24 04:57:30;;;;;;;9.47;5.90;;;;;;;16.41;69.32;99808.22;5108113;28;19907;-32
2022/05/24 04:59:55;;;;;;;10.77;6.22;;;;;;;16.48;68.29;99791.81;5108629;28;20034;-28
2022/05/24 05:02:21;;;;;;;9.52;7.55;;;;;;;16.72;68.49;99800.22;5108552;28;20395;-28
2022/05/24 05:04:47;;;;;;;12.00;7.10;;;;;;;16.35;69.19;99782.34;5108176;28;20035;-28
2022/05/24 05:07:15;;;;;;;8.55;5.25;;;;;;;16.55;69.65;99802.31;5089727;28;20023;-28
2022/05/24 05:09:43;;;;;;;7.88;5.35;;;;;;;16.63;68.94;99799.94;5090056;28;20495;-30
2022/05/24 05:12:10;;;;;;;7.93;5.00;;;;;;;16.84;67.16;99789.25;5090013;28;20027;-30
2022/05/24 05:14:38;;;;;;;6.25;4.18;;;;;;;16.84;67.14;99806.22;5089539;28;20404;-31
2022/05/24 05:17:04;;;;;;;7.93;4.18;;;;;;;16.82;67.12;99789.50;5108694;28;20034;-30
2022/05/24 05:19:30;;;;;;;6.45;4.05;;;;;;;17.19;66.01;99806.53;5108225;28;20087;-30
2022/05/24 05:21:56;;;;;;;7.00;4.05;;;;;;;16.91;66.46;99799.75;5107878;28;20027;-32
2022/05/24 05:24:22;;;;;;;17.83;9.98;;;;;;;17.42;64.01;99814.06;5089766;28;20468;-29
2022/05/24 05:26:47;;;;;;;13.82;7.68;;;;;;;17.76;62.51;99820.78;5107579;28;20085;-28
2022/05/24 05:29:13;;;;;;;13.40;6.90;;;;;;;17.76;62.73;99820.78;5108479;28;20055;-31
2022/05/24 05:31:38;;;;;;;12.07;6.88;;;;;;;17.40;65.13;99818.09;5089318;28;20081;-28
2022/05/24 05:34:04;;;;;;;10.77;7.32;;;;;;;17.45;65.27;99810.81;5107994;28;20115;-28
2022/05/24 05:36:31;;;;;;;9.95;4.85;;;;;;;17.85;63.14;99829.94;5107565;28;20114;-33
2022/05/24 05:38:57;;;;;;;9.23;4.20;;;;;;;18.09;61.95;99832.88;5089740;28;20510;-28
2022/05/24 05:41:29;;;;;;;6.78;3.92;;;;;;;18.19;61.13;99811.25;5089529;28;20055;-28
2022/05/24 05:43:59;;;;;;;13.07;4.30;;;;;;;18.27;62.09;99834.16;5108148;28;20136;-30
2022/05/24 05:46:26;;;;;;;8.60;4.57;;;;;;;17.90;63.09;99811.06;5089406;28;20031;-32
2022/05/24 05:48:51;;;;;;;10.77;4.03;;;;;;;18.35;61.63;99828.19;5088849;28;20038;-31
2022/05/24 05:51:18;;;;;;;9.20;3.90;;;;;;;18.21;62.48;99806.38;5107483;28;20031;-28
2022/05/24 05:53:44;;;;;;;13.10;4.60;;;;;;;18.38;62.10;99816.81;5089150;28;20039;-31
2022/05/24 05:56:19;;;;;;;7.45;3.95;;;;;;;18.77;60.82;99815.28;5089197;28;20074;-32
2022/05/24 05:58:46;;;;;;;22.35;5.28;;;;;;;18.91;60.71;99820.91;5107274;28;20499;-29
2022/05/24 06:01:28;;;;;;;7.43;3.70;;;;;;;18.77;59.37;99794.47;5088845;28;20659;-31
2022/05/24 06:03:53;;;;;;;7.00;3.45;;;;;;;18.77;60.22;99780.16;5088852;28;20027;-30
2022/05/24 06:06:23;;;;;;;10.52;3.80;;;;;;;18.92;60.44;99784.69;5107331;28;20089;-31
2022/05/24 06:08:49;;;;;;;5.78;3.33;;;;;;;19.32;59.97;99801.69;5087323;28;20415;-29
2022/05/24 06:11:15;;;;;;;6.50;3.10;;;;;;;19.64;57.87;99809.25;5107016;28;20028;-32
2022/05/24 06:13:41;;;;;;;6.40;3.75;;;;;;;19.57;58.67;99808.75;5088612;28;20523;-31
2022/05/24 06:16:06;;;;;;;5.78;2.90;;;;;;;19.24;58.59;99803.91;5088676;28;20126;-32
2022/05/24 06:18:32;;;;;;;6.25;3.28;;;;;;;19.73;57.25;99814.88;5106995;28;20099;-30
2022/05/24 06:20:57;;;;;;;6.20;3.35;;;;;;;19.89;56.51;99799.28;5107106;28;20080;-33
2022/05/24 06:23:24;;;;;;;6.75;3.22;;;;;;;20.18;54.99;99813.56;5107314;28;20051;-28
2022/05/24 06:25:51;;;;;;;5.97;2.90;;;;;;;20.03;56.08;99806.44;5107182;28;20028;-28
2022/05/24 06:28:17;;;;;;;5.47;2.83;;;;;;;20.40;54.60;99810.31;5106942;28;20031;-32
2022/05/24 06:30:43;;;;;;;8.85;3.00;;;;;;;20.55;54.86;99805.78;5106458;28;20031;-31
2022/05/24 06:33:08;;;;;;;4.60;2.83;;;;;;;20.58;53.68;99797.09;5088902;28;20079;-29
2022/05/24 06:35:36;;;;;;;5.95;3.13;;;;;;;20.96;51.58;99821.50;5088644;28;20039;-32
2022/05/24 06:38:02;;;;;;;5.10;2.58;;;;;;;20.66;53.95;99812.72;5107327;28;20027;-33
2022/05/24 06:40:28;;;;;;;4.75;2.80;;;;;;;20.64;53.15;99804.09;5106788;28;20398;-33
2022/05/24 06:42:53;;;;;;;6.38;2.78;;;;;;;20.41;51.76;99821.94;5106889;28;20104;-29
2022/05/24 06:45:19;;;;;;;5.28;2.60;;;;;;;20.09;53.10;99819.91;5106438;28;20037;-33
2022/05/24 06:47:45;;;;;;;5.32;2.83;;;;;;;20.15;52.40;99813.34;5106776;28;20039;-31
2022/05/24 06:50:12;;;;;;;6.93;3.38;;;;;;;19.99;54.64;99812.72;5107023;28;20450;-28
2022/05/24 06:52:37;;;;;;;4.38;3.05;;;;;;;20.16;55.26;99804.91;5088332;28;20028;-30
2022/05/24 06:55:05;;;;;;;5.18;3.00;;;;;;;20.55;52.76;99813.91;5088569;28;20054;-32
2022/05/24 06:57:30;;;;;;;4.15;2.97;;;;;;;20.90;51.59;99818.06;5106583;28;20021;-29
2022/05/24 07:02:40;;;;;;;7.50;3.38;;;;;;;20.77;51.25;99818.81;5106730;28;20031;-29
2022/05/24 07:05:10;;;;;;;4.22;2.75;;;;;;;21.05;52.42;99814.34;5106799;28;20024;-34
2022/05/24 07:07:36;;;;;;;5.78;3.00;;;;;;;21.48;51.79;99833.19;5106511;28;20546;-28
2022/05/24 07:10:05;;;;;;;4.47;2.75;;;;;;;21.48;50.00;99814.22;5088214;28;20032;-29
2022/05/24 07:12:30;;;;;;;6.88;2.90;;;;;;;21.60;48.16;99836.25;5106149;28;20031;-29
2022/05/24 07:14:58;;;;;;;8.30;2.95;;;;;;;21.32;48.72;99843.44;5106758;28;20129;-33
2022/05/24 07:17:23;;;;;;;4.10;2.22;;;;;;;21.47;47.91;99834.28;5088381;28;20031;-31
2022/05/24 07:19:50;;;;;;;3.20;2.30;;;;;;;21.52;47.54;99826.06;5106863;28;20085;-29
2022/05/24 07:22:16;;;;;;;7.45;2.72;;;;;;;21.49;48.72;99834.78;5110304;28;20552;-29
2022/05/24 07:24:41;;;;;;;4.18;2.30;;;;;;;22.17;48.06;99821.59;5091595;28;20031;-29
2022/05/24 07:27:12;;;;;;;4.82;2.88;;;;;;;21.81;46.10;99814.97;5091538;28;20031;-32
2022/05/24 07:29:38;;;;;;;4.60;2.55;;;;;;;22.00;46.79;99844.72;5091776;28;20168;-33
2022/05/24 07:32:07;;;;;;;5.28;2.63;;;;;;;21.87;47.58;99821.09;5091858;28;20155;-29
2022/05/24 07:34:34;;;;;;;8.07;2.80;;;;;;;21.82;47.30;99807.63;5091341;28;20126;-32
2022/05/24 07:37:01;;;;;;;6.18;2.50;;;;;;;22.01;47.11;99818.41;5091865;28;20032;-28
2022/05/24 07:39:27;;;;;;;5.63;2.47;;;;;;;22.41;46.69;99819.53;5090984;28;20442;-30
2022/05/24 07:47:19;;;;;;;5.13;2.78;;;;;;;23.01;46.71;99809.50;5109942;28;20028;-29
2022/05/24 07:49:44;;;;;;;5.68;2.40;;;;;;;22.71;47.14;99803.66;5109658;28;20548;-32
2022/05/24 07:52:10;;;;;;;4.95;2.65;;;;;;;22.82;46.66;99805.06;5109511;28;20808;-28
2022/05/24 07:54:36;;;;;;;4.97;2.50;;;;;;;22.95;46.03;99808.03;5109589;28;20051;-29
2022/05/24 07:57:02;;;;;;;5.50;2.63;;;;;;;23.05;46.76;99805.91;5091423;28;20051;-29
2022/05/24 07:59:28;;;;;;;6.63;2.58;;;;;;;22.77;46.51;99780.69;5091285;28;20058;-31
2022/05/24 08:01:53;;;;;;;4.65;2.72;;;;;;;23.18;46.08;99806.13;5091100;28;20039;-29
2022/05/24 08:04:19;;;;;;;5.07;2.70;;;;;;;22.99;46.70;99789.97;5109496;28;20077;-31
2022/05/24 08:06:45;;;;;;;5.38;2.53;;;;;;;23.32;46.66;99789.75;5090779;28;20038;-29
2022/05/24 08:09:11;;;;;;;3.53;2.47;;;;;;;23.17;47.24;99804.53;5091010;28;20479;-29
2022/05/24 08:11:37;;;;;;;5.30;2.20;;;;;;;22.96;45.17;99794.09;5090848;28;20028;-31
2022/05/24 08:14:03;;;;;;;6.00;2.45;;;;;;;22.76;45.89;99795.41;5090841;28;20031;-33
2022/05/24 08:16:30;;;;;;;4.13;2.80;;;;;;;23.13;45.71;99782.59;5090632;28;20050;-31
2022/05/24 08:18:58;;;;;;;8.02;3.70;;;;;;;23.39;45.95;99795.53;5090873;28;20085;-30
2022/05/24 08:21:26;;;;;;;4.80;2.42;;;;;;;23.13;46.32;99788.03;5090825;28;20139;-31
2022/05/24 08:23:52;;;;;;;5.93;2.88;;;;;;;23.49;46.21;99800.72;5090900;28;20046;-29
2022/05/24 08:26:18;;;;;;;5.40;2.42;;;;;;;23.33;45.25;99785.91;5108940;28;20468;-29
2022/05/24 08:28:43;;;;;;;6.53;2.90;;;;;;;23.89;45.45;99778.22;5090317;28;20032;-29
2022/05/24 08:31:10;;;;;;;3.67;2.63;;;;;;;23.41;46.70;99787.88;5108742;28;20031;-30
2022/05/24 08:33:36;;;;;;;5.35;2.50;;;;;;;23.66;44.86;99773.63;5108143;28;20110;-31
2022/05/24 08:36:03;;;;;;;5.75;2.47;;;;;;;23.98;44.11;99779.84;5090397;28;20036;-28
2022/05/24 08:38:28;;;;;;;3.53;2.42;;;;;;;23.94;44.54;99773.41;5090237;28;20035;-28
2022/05/24 08:41:00;;;;;;;5.03;2.80;;;;;;;24.00;44.37;99777.59;5108726;28;20776;-33
2022/05/24 08:43:52;;;;;;;4.60;2.42;;;;;;;23.99;44.66;99778.72;5090107;28;20032;-30
2022/05/24 08:49:14;;;;;;;8.80;2.70;;;;;;;24.08;45.08;99783.41;5108499;28;20101;-28
2022/05/24 08:51:50;;;;;;;4.43;2.55;;;;;;;24.01;44.77;99781.94;5090115;28;20035;-30
2022/05/24 08:54:19;;;;;;;5.30;2.50;;;;;;;23.84;45.31;99760.09;5108432;28;20016;-29
2022/05/24 08:56:52;;;;;;;8.35;2.70;;;;;;;24.15;44.66;99778.28;5089372;28;20038;-37
2022/05/24 08:59:33;;;;;;;6.32;2.60;;;;;;;23.85;43.79;99765.22;5090180;28;20038;-29
2022/05/24 09:02:02;;;;;;;4.80;2.53;;;;;;;24.05;43.96;99769.28;5089987;28;20758;-28
2022/05/24 09:04:29;;;;;;;5.82;2.55;;;;;;;23.98;44.18;99766.22;5090024;28;20027;-29
2022/05/24 09:07:29;;;;;;;4.25;2.65;;;;;;;23.58;44.73;99766.22;5089472;28;20122;-33
2022/05/24 09:10:05;;;;;;;3.70;2.25;;;;;;;23.49;44.95;99762.63;5108158;28;20746;-31
2022/05/24 09:12:49;;;;;;;6.20;2.85;;;;;;;23.68;45.45;99762.41;5108178;28;20419;-29
2022/05/24 09:15:36;;;;;;;7.43;2.50;;;;;;;24.21;44.45;99766.13;5089569;28;20039;-33
2022/05/24 09:18:17;;;;;;;4.00;2.33;;;;;;;24.97;42.42;99776.63;5108291;28;20036;-31
2022/05/24 09:20:44;;;;;;;4.63;2.40;;;;;;;25.20;43.67;99769.06;5107710;28;20068;-29
2022/05/24 09:23:30;;;;;;;8.43;2.70;;;;;;;25.00;42.49;99770.53;5089873;28;20123;-31
2022/05/24 09:26:05;;;;;;;4.70;2.60;;;;;;;25.12;41.06;99782.72;5107678;28;20083;-29
2022/05/24 09:28:59;;;;;;;5.32;2.65;;;;;;;25.01;42.12;99782.25;5107635;28;20114;-32
2022/05/24 09:31:43;;;;;;;6.70;2.80;;;;;;;25.17;42.33;99786.09;5107754;28;20108;-31
2022/05/24 09:34:17;;;;;;;6.35;2.53;;;;;;;25.19;40.96;99789.28;5107574;28;20034;-29
2022/05/24 09:36:59;;;;;;;6.13;2.65;;;;;;;25.04;41.10;99795.25;5107710;28;20551;-29
2022/05/24 09:39:27;;;;;;;5.88;2.65;;;;;;;25.05;41.81;99794.13;5089244;28;20043;-30
2022/05/24 09:42:03;;;;;;;6.70;3.00;;;;;;;24.93;43.02;99766.66;5089343;28;20071;-29
2022/05/24 09:44:47;;;;;;;6.05;2.60;;;;;;;25.33;41.92;99771.94;5088295;28;20040;-30
2022/05/24 09:47:31;;;;;;;5.97;2.63;;;;;;;24.79;41.48;99764.94;5107714;28;20503;-29
2022/05/24 09:50:15;;;;;;;5.30;2.80;;;;;;;24.83;43.13;99754.97;5107547;28;20023;-29
2022/05/24 09:52:46;;;;;;;4.82;2.45;;;;;;;24.75;41.83;99753.06;5107057;28;20031;-31
2022/05/24 09:55:22;;;;;;;4.82;3.47;;;;;;;25.02;42.86;99748.38;5107653;28;20027;-29
2022/05/24 09:57:48;;;;;;;5.63;3.28;;;;;;;25.18;42.54;99749.47;5072700;28;20035;-30
2022/05/24 10:00:23;;;;;;;5.90;2.63;;;;;;;25.11;42.16;99754.63;5107779;28;20036;-30
2022/05/24 10:03:05;;;;;;;6.50;2.83;;;;;;;25.16;42.44;99743.53;5089009;28;20031;-30
2022/05/24 10:05:30;;;;;;;5.75;3.33;;;;;;;25.04;41.46;99746.13;5107401;28;20949;-29
2022/05/24 10:08:03;;;;;;;6.35;2.88;;;;;;;24.85;43.28;99736.38;5107388;28;20503;-31
2022/05/24 10:10:37;;;;;;;5.22;2.63;;;;;;;25.43;41.89;99739.63;5071939;28;20038;-29
2022/05/24 10:13:24;;;;;;;4.75;2.85;;;;;;;25.36;42.43;99744.81;5088797;28;20067;-29
2022/05/24 10:16:09;;;;;;;7.40;2.95;;;;;;;25.88;41.08;99738.31;5107376;28;20479;-29
2022/05/24 10:18:53;;;;;;;4.55;2.45;;;;;;;26.17;39.45;99753.13;5088935;28;20032;-28
2022/05/24 10:21:38;;;;;;;7.82;2.55;;;;;;;26.52;40.49;99739.22;5107473;28;20110;-30
2022/05/24 10:24:18;;;;;;;11.30;2.60;;;;;;;26.70;39.30;99757.13;5107224;28;20031;-30
2022/05/24 10:27:01;;;;;;;6.47;2.80;;;;;;;26.72;38.88;99743.13;5107321;28;20096;-30
2022/05/24 10:29:49;;;;;;;7.15;3.20;;;;;;;26.35;40.21;99746.41;5088994;28;20570;-35
2022/05/24 10:38:20;;;;;;;7.15;3.22;;;;;;;25.95;42.38;99749.56;5067494;28;20091;-36
2022/05/24 10:41:07;;;;;;;5.20;2.65;;;;;;;25.78;40.83;99739.50;5084889;28;20055;-32
2022/05/24 10:43:36;;;;;;;6.35;3.20;;;;;;;25.83;42.13;99725.66;5085560;28;20765;-30
2022/05/24 10:46:10;;;;;;;7.15;3.00;;;;;;;26.39;38.73;99741.09;5086918;28;20421;-29
2022/05/24 10:48:48;;;;;;;5.05;3.70;;;;;;;27.19;38.48;99731.88;5086499;28;20016;-33
2022/05/24 10:51:28;;;;;;;6.25;3.10;;;;;;;26.82;38.91;99732.56;5068745;28;20040;-31
2022/05/24 10:53:56;;;;;;;5.82;2.92;;;;;;;27.12;39.25;99716.00;5086695;28;20035;-29
2022/05/24 10:56:27;;;;;;;5.82;2.72;;;;;;;27.63;37.50;99727.53;5088213;28;20024;-29
2022/05/24 10:59:03;;;;;;;5.15;2.92;;;;;;;28.43;36.36;99723.34;5089604;28;20064;-31
2022/05/24 11:01:37;;;;;;;5.85;3.10;;;;;;;28.48;36.33;99724.22;5088952;28;20032;-31
2022/05/24 11:04:15;;;;;;;8.18;3.40;;;;;;;28.17;36.04;99709.22;5089413;28;20047;-35
2022/05/24 11:06:48;;;;;;;6.20;3.05;;;;;;;28.59;35.86;99711.66;5089113;28;20043;-35
2022/05/24 11:09:18;;;;;;;6.97;3.20;;;;;;;28.92;35.32;99691.38;5089118;28;20134;-31
2022/05/24 11:11:51;;;;;;;6.72;3.25;;;;;;;28.38;36.69;99685.19;5088779;28;20020;-33
2022/05/24 11:14:40;;;;;;;6.30;3.10;;;;;;;28.52;36.62;99673.03;5090492;28;20547;-32
2022/05/24 11:17:10;;;;;;;5.82;3.10;;;;;;;27.81;37.83;99667.03;5088609;28;20035;-34
2022/05/24 11:19:36;;;;;;;6.00;3.20;;;;;;;28.02;37.31;99697.03;5088617;28;20552;-30
2022/05/24 11:22:21;;;;;;;6.53;3.10;;;;;;;28.05;38.42;99690.84;5071842;28;20423;-31
2022/05/24 11:25:08;;;;;;;7.55;3.22;;;;;;;28.32;37.80;99683.84;5088680;28;20042;-30
2022/05/24 11:27:50;;;;;;;6.28;3.72;;;;;;;28.33;37.12;99676.41;5090211;28;20035;-29
2022/05/24 11:30:35;;;;;;;6.18;3.65;;;;;;;28.68;36.75;99671.16;5090127;28;20036;-30
2022/05/24 11:33:05;;;;;;;6.25;3.15;;;;;;;29.10;35.71;99648.72;5088622;28;20390;-29
2022/05/24 11:35:44;;;;;;;7.10;3.25;;;;;;;29.01;36.38;99646.16;5089829;28;20077;-31
2022/05/24 11:38:18;;;;;;;4.80;3.03;;;;;;;29.26;35.55;99624.06;5088714;28;20048;-30
2022/05/24 11:40:54;;;;;;;7.05;3.30;;;;;;;29.36;35.72;99636.41;5087784;28;20059;-31
2022/05/24 11:43:35;;;;;;;5.72;3.20;;;;;;;28.37;36.79;99627.94;5088480;28;20046;-34
2022/05/24 11:46:10;;;;;;;8.18;3.40;;;;;;;28.12;37.62;99651.91;5089666;28;20500;-28
2022/05/24 11:48:52;;;;;;;8.60;3.05;;;;;;;28.44;37.57;99667.34;5087973;28;20196;-29
2022/05/24 11:51:36;;;;;;;6.72;3.00;;;;;;;28.90;37.70;99685.47;5088190;28;20028;-31
2022/05/24 11:54:08;;;;;;;6.85;2.92;;;;;;;29.16;35.92;99688.53;5086358;28;20416;-30
2022/05/24 11:56:34;;;;;;;4.90;3.05;;;;;;;28.73;36.24;99681.06;5087062;28;20032;-29
2022/05/24 11:59:11;;;;;;;6.13;3.00;;;;;;;28.75;36.73;99671.34;5087517;28;20040;-36
2022/05/24 12:01:41;;;;;;;7.63;4.10;;;;;;;28.70;37.65;99684.53;5087659;28;20054;-29
2022/05/24 12:07:58;;;;;;;11.65;6.03;;;;;;;29.00;36.49;99688.47;5086992;28;20515;-30
2022/05/24 12:10:10;;;;;;;17.15;3.83;;;;;;;29.65;36.13;99701.91;5080105;28;20723;-30
2022/05/24 12:12:49;;;;;;;8.80;3.70;;;;;;;30.01;34.99;99721.97;5086846;28;20031;-31
2022/05/24 12:15:21;;;;;;;8.07;3.35;;;;;;;29.40;35.67;99761.72;5089167;28;20499;-30
2022/05/24 12:18:11;;;;;;;5.85;2.92;;;;;;;28.83;36.67;99782.91;5089088;28;20492;-29
2022/05/24 12:20:36;;;;;;;6.25;3.28;;;;;;;27.97;38.20;99763.88;5086885;28;20031;-30